Search for airport 
image banner adimage banner ad
image banner ad

DAAT - Tamenghasset/Aguenar-Hadj Bey Akhamok

Located in Tamanrasset, Algeria

ICAO - DAAT, IATA - TMR

Data provided by Airmate  

General information

Coordinates: N22°48'40" E5°27'3"
Elevation is 4517 feet MSL.
 
Rated:
View ratings: [VIEW]


View others Airports in Tamanghasset Province

Operational data

Open for public use
Current time UTC:
Current local time:
Weather
METAR: DAAT 070000Z 04012KT 9999 FEW046 SCT100 29/08 Q1020
TAF: TAF DAAT 062300Z 0700/0724 04014KT 9999 SCT046 SCT100 PROB40 TEMPO 0700/0704 3000 HZ FEW046TCU BECMG 0706/0709 18012KT PROB40 TEMPO 0708/0712 3000 HZ PROB30 TEMPO 0714/0718 SCT046TCU
View NOTAMs / SUP AIP / TFR affecting this airport [VIEW]
Communications frequencies: [VIEW]

Runways:

RWY identifierQFULength (ft)Width (ft)SurfaceLDA (ft)
0222°11811148ASP
20202°11811148
0881°10335148
26261°10335148

Airport contact information

Address: Tamanrasset Algeria

Satellite view of DAAT